createdAt,value
2023-04-01T00:01:57.391Z,40.92
2023-04-01T00:06:01.102Z,40.75
2023-04-01T00:10:07.768Z,47.70
2023-04-01T00:14:10.114Z,49.97
2023-04-01T00:18:12.773Z,46.22
2023-04-01T00:22:14.885Z,49.97
2023-04-01T00:26:21.956Z,52.80
2023-04-01T00:30:24.212Z,45.22
2023-04-01T00:34:26.603Z,48.97
2023-04-01T00:38:29.056Z,58.10
2023-04-01T00:42:31.386Z,51.67
2023-04-01T00:46:33.613Z,55.90
2023-04-01T00:50:36.813Z,53.03
2023-04-01T00:54:40.465Z,52.05
2023-04-01T00:58:47.377Z,57.97
2023-04-01T01:02:52.265Z,67.90
2023-04-01T01:07:00.001Z,55.70
2023-04-01T01:11:03.781Z,59.60
2023-04-01T01:15:26.258Z,65.43
2023-04-01T01:19:48.502Z,66.43
2023-04-01T01:24:10.511Z,63.50
2023-04-01T01:28:46.997Z,59.88
2023-04-01T01:33:08.274Z,67.43
2023-04-01T01:37:15.205Z,65.25
2023-04-01T01:41:19.585Z,61.03
2023-04-01T01:45:25.006Z,64.72
2023-04-01T01:49:28.673Z,63.05
2023-04-01T01:53:30.801Z,68.25
2023-04-01T01:57:36.093Z,59.88
2023-04-01T02:01:45.416Z,66.40
2023-04-01T02:05:52.995Z,56.30
2023-04-01T02:09:55.385Z,63.33
2023-04-01T02:14:06.565Z,64.85
2023-04-01T02:18:09.329Z,57.55
2023-04-01T02:22:16.968Z,55.60
2023-04-01T02:26:19.949Z,62.70
2023-04-01T02:30:22.842Z,69.15
2023-04-01T02:34:26.474Z,57.10
2023-04-01T02:38:28.339Z,59.30
2023-04-01T02:42:30.601Z,55.08
2023-04-01T02:46:32.788Z,59.60
2023-04-01T02:50:35.519Z,69.53
2023-04-01T02:54:37.678Z,64.38
2023-04-01T02:58:39.903Z,64.20
2023-04-01T03:02:42.270Z,67.82
2023-04-01T03:06:44.564Z,63.90
2023-04-01T03:10:46.741Z,66.93
2023-04-01T03:14:48.859Z,75.43
2023-04-01T03:18:53.733Z,68.68
2023-04-01T03:22:56.522Z,77.60
2023-04-01T03:26:58.480Z,88.60
2023-04-01T03:31:00.664Z,81.70
2023-04-01T03:35:05.958Z,78.30
2023-04-01T03:39:08.047Z,82.97
2023-04-01T03:43:17.678Z,90.90
2023-04-01T03:47:20.045Z,88.30
2023-04-01T03:51:22.175Z,90.45
2023-04-01T03:55:24.320Z,88.50
2023-04-01T03:59:26.497Z,86.50
2023-04-01T04:03:29.162Z,87.38
2023-04-01T04:07:31.549Z,86.72
2023-04-01T04:11:38.021Z,87.10
2023-04-01T04:15:40.616Z,91.18
2023-04-01T04:19:43.400Z,76.72
2023-04-01T04:23:46.106Z,85.93
2023-04-01T04:27:50.925Z,70.95
2023-04-01T04:31:53.297Z,75.50
2023-04-01T04:35:57.546Z,79.13
2023-04-01T04:39:59.867Z,77.13
2023-04-01T04:44:02.296Z,69.20
2023-04-01T04:48:04.683Z,66.28
2023-04-01T04:52:07.116Z,55.65
2023-04-01T04:56:09.432Z,50.92
2023-04-01T05:00:19.040Z,48.38
2023-04-01T05:04:37.499Z,45.70
2023-04-01T05:08:43.767Z,46.20
2023-04-01T05:12:45.953Z,46.10
2023-04-01T05:16:52.915Z,43.97
2023-04-01T05:20:56.334Z,40.53
2023-04-01T05:24:58.295Z,34.63
2023-04-01T05:29:00.857Z,35.47
2023-04-01T05:33:03.586Z,37.53
2023-04-01T05:37:05.934Z,34.40
2023-04-01T05:41:08.052Z,36.15
2023-04-01T05:45:16.455Z,32.83
2023-04-01T05:49:37.163Z,33.80
2023-04-01T05:53:40.329Z,30.15
2023-04-01T05:57:42.591Z,35.25
2023-04-01T06:01:44.960Z,34.55
2023-04-01T06:05:47.571Z,26.90
2023-04-01T06:09:50.211Z,31.35
2023-04-01T06:14:00.138Z,26.63
2023-04-01T06:18:29.653Z,27.15
2023-04-01T06:22:44.185Z,25.70
2023-04-01T06:27:13.022Z,23.05
2023-04-01T06:31:33.337Z,22.55
2023-04-01T06:35:53.373Z,22.08
2023-04-01T06:40:04.793Z,24.83
2023-04-01T06:44:17.059Z,23.67
2023-04-01T06:49:02.272Z,26.38
2023-04-01T06:53:35.333Z,27.67
2023-04-01T06:57:59.906Z,28.73
2023-04-01T07:02:11.381Z,31.50
2023-04-01T07:06:33.557Z,37.05
2023-04-01T07:11:06.186Z,33.42
2023-04-01T07:15:34.614Z,29.85
2023-04-01T07:20:12.332Z,34.17
2023-04-01T07:24:31.070Z,33.72
2023-04-01T07:28:42.279Z,31.40
2023-04-01T07:33:10.031Z,32.65
2023-04-01T07:37:23.196Z,26.98
2023-04-01T07:41:34.728Z,29.45
2023-04-01T07:46:12.197Z,31.98
2023-04-01T07:50:39.250Z,33.28
2023-04-01T07:55:07.168Z,36.22
2023-04-01T07:59:25.951Z,43.80
2023-04-01T08:03:56.943Z,46.78
2023-04-01T08:08:17.630Z,46.08
2023-04-01T08:13:08.360Z,40.35
2023-04-01T08:17:41.654Z,36.45
2023-04-01T08:21:53.446Z,38.17
2023-04-01T08:26:11.870Z,33.72
2023-04-01T08:30:24.228Z,29.63
2023-04-01T08:34:31.940Z,29.67
2023-04-01T08:43:23.769Z,29.65
2023-04-01T08:47:40.638Z,23.95
2023-04-01T08:52:16.029Z,19.65
2023-04-01T08:56:32.231Z,16.55
2023-04-01T09:01:26.091Z,20.95
2023-04-01T09:05:43.709Z,17.75
2023-04-01T09:10:12.009Z,19.17
2023-04-01T09:14:38.698Z,18.63
2023-04-01T09:19:38.495Z,23.58
2023-04-01T09:24:01.999Z,19.70
2023-04-01T09:28:20.049Z,17.63
2023-04-01T09:32:53.836Z,12.55
2023-04-01T09:37:22.832Z,11.65
2023-04-01T09:41:30.340Z,14.18
2023-04-01T09:46:05.826Z,9.30
2023-04-01T09:50:46.871Z,8.85
2023-04-01T09:55:18.598Z,12.05
2023-04-01T09:59:48.471Z,14.88
2023-04-01T10:04:41.114Z,14.35
2023-04-01T10:09:08.718Z,8.77
2023-04-01T10:13:31.517Z,10.73
2023-04-01T10:17:42.937Z,10.35
2023-04-01T10:22:03.546Z,10.05
2023-04-01T10:26:41.752Z,7.43
2023-04-01T10:31:27.766Z,6.95
2023-04-01T10:35:49.719Z,10.45
2023-04-01T10:40:19.841Z,8.32
2023-04-01T10:45:07.918Z,9.93
2023-04-01T10:49:36.647Z,12.30
2023-04-01T10:53:50.282Z,13.90
2023-04-01T10:58:01.210Z,12.95
2023-04-01T11:07:08.448Z,11.00
2023-04-01T11:11:35.797Z,8.90
2023-04-01T11:16:10.694Z,11.55
2023-04-01T11:20:34.716Z,10.35
2023-04-01T11:24:47.121Z,7.53
2023-04-01T11:29:15.483Z,5.10
2023-04-01T11:33:27.096Z,5.07
2023-04-01T11:37:45.182Z,6.43
2023-04-01T11:42:20.902Z,6.38
2023-04-01T11:46:58.133Z,7.65
2023-04-01T11:51:18.750Z,6.97
2023-04-01T11:55:28.804Z,109.95
2023-04-01T11:59:54.036Z,122.00
2023-04-01T12:04:30.127Z,7.72
2023-04-01T12:09:09.362Z,27.90
2023-04-01T12:13:26.126Z,15.43
2023-04-01T12:17:40.205Z,8.73
2023-04-01T12:22:23.729Z,11.10
2023-04-01T12:26:40.776Z,12.60
2023-04-01T12:30:57.757Z,12.52
2023-04-01T12:35:33.421Z,12.93
2023-04-01T12:39:54.322Z,8.23
2023-04-01T12:44:36.342Z,6.47
2023-04-01T12:48:54.924Z,91.95
2023-04-01T12:53:08.954Z,28.80
2023-04-01T12:58:04.895Z,5.63
2023-04-01T13:02:14.977Z,4.93
2023-04-01T13:06:35.343Z,3.58
2023-04-01T13:11:06.061Z,4.47
2023-04-01T13:15:34.254Z,3.50
2023-04-01T13:20:05.509Z,4.93
2023-04-01T13:24:39.454Z,3.35
2023-04-01T13:28:45.904Z,5.63
2023-04-01T13:33:07.478Z,3.50
2023-04-01T13:37:47.564Z,3.72
2023-04-01T13:42:15.683Z,3.78
2023-04-01T13:46:36.281Z,4.70
2023-04-01T13:51:16.319Z,4.07
2023-04-01T13:55:56.612Z,5.00
2023-04-01T14:00:17.582Z,3.13
2023-04-01T14:04:45.878Z,3.53
2023-04-01T14:09:11.744Z,3.45
2023-04-01T14:13:42.045Z,4.13
2023-04-01T14:17:47.435Z,5.40
2023-04-01T14:22:01.418Z,3.88
2023-04-01T14:26:22.196Z,4.57
2023-04-01T14:31:03.341Z,6.07
2023-04-01T14:35:20.940Z,4.28
2023-04-01T14:39:44.554Z,6.25
2023-04-01T14:44:26.158Z,4.43
2023-04-01T14:48:31.527Z,5.40
2023-04-01T14:52:37.150Z,3.17
2023-04-01T14:56:40.788Z,5.20
2023-04-01T15:01:13.148Z,3.47
2023-04-01T15:05:38.200Z,3.95
2023-04-01T15:10:20.523Z,3.80
2023-04-01T15:14:51.403Z,5.25
2023-04-01T15:19:31.309Z,4.65
2023-04-01T15:28:12.048Z,6.05
2023-04-01T15:32:51.481Z,5.28
2023-04-01T15:37:21.707Z,6.03
2023-04-01T15:41:50.859Z,6.03
2023-04-01T15:46:37.490Z,6.28
2023-04-01T15:50:56.797Z,6.97
2023-04-01T15:55:05.121Z,6.50
2023-04-01T15:59:25.665Z,4.28
2023-04-01T16:03:47.024Z,7.25
2023-04-01T16:08:14.152Z,7.43
2023-04-01T16:12:24.377Z,15.07
2023-04-01T16:17:00.019Z,10.27
2023-04-01T16:21:23.349Z,6.65
2023-04-01T16:25:43.010Z,7.28
2023-04-01T16:29:48.784Z,6.68
2023-04-01T16:33:58.831Z,5.05
2023-04-01T16:38:10.563Z,10.75
2023-04-01T16:42:25.526Z,5.43
2023-04-01T16:46:47.346Z,6.60
2023-04-01T16:51:16.227Z,5.05
2023-04-01T16:55:21.406Z,10.88
2023-04-01T16:59:37.771Z,8.95
2023-04-01T17:03:46.135Z,9.10
2023-04-01T17:08:09.115Z,9.18
2023-04-01T17:12:41.030Z,7.38
2023-04-01T17:17:08.798Z,11.32
2023-04-01T17:21:18.931Z,18.63
2023-04-01T17:25:46.895Z,10.20
2023-04-01T17:30:19.303Z,15.23
2023-04-01T17:34:45.986Z,18.63
2023-04-01T17:39:19.139Z,10.48
2023-04-01T17:43:39.821Z,10.13
2023-04-01T17:47:53.699Z,10.60
2023-04-01T17:52:04.605Z,10.20
2023-04-01T17:56:16.563Z,9.57
2023-04-01T18:00:50.695Z,7.65
2023-04-01T18:05:26.212Z,7.55
2023-04-01T18:09:49.626Z,10.70
2023-04-01T18:14:29.049Z,9.68
2023-04-01T18:18:43.159Z,12.93
2023-04-01T18:23:05.506Z,7.68
2023-04-01T18:27:10.500Z,9.57
2023-04-01T18:31:35.619Z,12.70
2023-04-01T18:36:08.862Z,14.68
2023-04-01T18:40:37.955Z,13.18
2023-04-01T18:44:48.610Z,16.05
2023-04-01T18:48:59.464Z,18.05
2023-04-01T18:53:17.330Z,18.38
2023-04-01T18:57:21.183Z,18.48
2023-04-01T19:02:20.379Z,17.25
2023-04-01T19:06:26.100Z,19.92
2023-04-01T19:10:34.973Z,17.88
2023-04-01T19:15:08.366Z,16.77
2023-04-01T19:19:20.668Z,15.20
2023-04-01T19:23:43.746Z,18.50
2023-04-01T19:27:54.771Z,15.18
2023-04-01T19:32:14.534Z,19.15
2023-04-01T19:36:38.354Z,18.52
2023-04-01T19:40:54.403Z,19.80
2023-04-01T19:45:12.545Z,16.38
2023-04-01T19:49:17.736Z,18.17
2023-04-01T19:53:38.186Z,16.05
2023-04-01T19:57:52.356Z,18.88
2023-04-01T20:02:21.876Z,19.33
2023-04-01T20:06:47.300Z,29.05
2023-04-01T20:11:01.276Z,24.75
2023-04-01T20:15:21.394Z,17.45
2023-04-01T20:19:36.189Z,14.50
2023-04-01T20:23:43.865Z,20.95
2023-04-01T20:28:21.868Z,20.23
2023-04-01T20:33:00.949Z,19.58
2023-04-01T20:37:21.808Z,17.35
2023-04-01T20:41:23.797Z,19.45
2023-04-01T20:45:54.478Z,17.50
2023-04-01T20:50:34.930Z,17.02
2023-04-01T20:54:49.106Z,19.52
2023-04-01T20:58:58.745Z,16.92
2023-04-01T21:03:09.478Z,14.27
2023-04-01T21:07:33.319Z,17.33
2023-04-01T21:11:44.247Z,16.08
2023-04-01T21:16:05.279Z,14.95
2023-04-01T21:20:29.272Z,16.50
2023-04-01T21:25:06.798Z,12.93
2023-04-01T21:29:46.448Z,12.30
2023-04-01T21:34:32.491Z,10.63
2023-04-01T21:38:55.737Z,9.38
2023-04-01T21:43:01.012Z,14.13
2023-04-01T21:47:33.487Z,11.20
2023-04-01T21:52:18.830Z,12.48
2023-04-01T21:56:42.064Z,11.65
2023-04-01T22:01:08.617Z,9.80
2023-04-01T22:05:34.729Z,11.77
2023-04-01T22:09:52.944Z,11.35
2023-04-01T22:14:03.108Z,12.10
2023-04-01T22:18:23.744Z,12.27
2023-04-01T22:22:34.344Z,12.23
2023-04-01T22:27:02.461Z,11.25
2023-04-01T22:31:08.979Z,10.02
2023-04-01T22:35:14.374Z,12.18
2023-04-01T22:39:25.069Z,12.18
2023-04-01T22:43:44.254Z,13.70
2023-04-01T22:48:16.781Z,9.38
2023-04-01T22:52:30.243Z,11.05
2023-04-01T22:56:43.703Z,9.32
2023-04-01T23:00:55.859Z,9.95
2023-04-01T23:05:02.278Z,11.70
2023-04-01T23:09:28.584Z,11.88
2023-04-01T23:13:46.651Z,12.20
2023-04-01T23:17:54.858Z,11.90
2023-04-01T23:22:35.385Z,12.70
2023-04-01T23:26:48.627Z,11.90
2023-04-01T23:30:51.791Z,17.85
2023-04-01T23:34:59.544Z,14.23
2023-04-01T23:39:06.396Z,16.93
2023-04-01T23:43:27.025Z,15.07
2023-04-01T23:47:33.637Z,17.13
2023-04-01T23:51:50.040Z,17.38
2023-04-01T23:55:53.055Z,14.07
